Time;durP1;ratioP1;P1;durP2;ratioP2;P2;SDS_P1;SDS_P2;PMS_P1;PMS_P2;Temp;Humidity;BMP_temperature;BMP_pressure;BME280_temperature;BME280_humidity;BME280_pressure;Samples;Min_cycle;Max_cycle;Signal;HPM_P1;HPM_P2
2021/01/16 00:00:34;;;;;;;22.15;14.75;;;3.40;1.00;;;;;;5114938;28;20024;-91
2021/01/16 00:03:00;;;;;;;20.85;14.75;;;3.50;1.00;;;;;;5114917;28;20065;-91
2021/01/16 00:05:28;;;;;;;20.40;14.13;;;3.00;1.00;;;;;;5108415;28;20028;-91
2021/01/16 00:08:08;;;;;;;17.92;13.63;;;3.50;1.00;;;;;;5095955;28;20035;-91
2021/01/16 00:10:39;;;;;;;20.33;14.73;;;3.50;1.00;;;;;;5094078;28;20485;-91
2021/01/16 00:13:05;;;;;;;18.23;13.05;;;3.50;1.00;;;;;;5097811;28;20027;-91
2021/01/16 00:15:32;;;;;;;19.15;13.60;;;3.20;1.00;;;;;;5114538;28;20022;-91
2021/01/16 00:18:00;;;;;;;18.15;13.38;;;3.40;1.00;;;;;;5114486;28;20027;-91
2021/01/16 00:20:26;;;;;;;18.52;13.15;;;3.10;1.00;;;;;;5113144;28;20028;-91
2021/01/16 00:22:52;;;;;;;17.13;12.68;;;3.40;1.00;;;;;;5114145;28;20027;-91
2021/01/16 00:25:18;;;;;;;18.42;13.18;;;3.20;1.00;;;;;;5114081;28;20053;-91
2021/01/16 00:27:44;;;;;;;18.60;12.60;;;3.30;1.00;;;;;;5113821;28;20547;-91
2021/01/16 00:30:11;;;;;;;18.80;12.85;;;2.90;1.00;;;;;;5114062;28;20027;-91
2021/01/16 00:32:38;;;;;;;17.10;12.38;;;2.70;1.00;;;;;;5113902;28;20023;-91
2021/01/16 00:35:13;;;;;;;18.02;12.65;;;3.20;1.00;;;;;;5113976;28;20043;-91
2021/01/16 00:37:39;;;;;;;17.08;11.75;;;2.80;1.00;;;;;;5112276;28;20061;-91
2021/01/16 00:40:10;;;;;;;16.90;11.98;;;2.80;1.00;;;;;;5113859;28;20043;-91
2021/01/16 00:42:41;;;;;;;19.15;12.43;;;2.80;1.00;;;;;;5113451;28;20023;-91
2021/01/16 00:45:08;;;;;;;18.35;13.02;;;3.00;1.00;;;;;;5114104;28;20027;-91
2021/01/16 00:47:35;;;;;;;16.80;12.52;;;2.70;1.00;;;;;;5113622;28;20024;-91
2021/01/16 00:50:01;;;;;;;19.10;13.10;;;3.20;1.00;;;;;;5111738;28;20016;-91
2021/01/16 00:52:27;;;;;;;17.35;12.60;;;2.80;1.00;;;;;;5093535;28;20035;-91
2021/01/16 00:54:53;;;;;;;17.67;12.30;;;2.70;1.00;;;;;;5093143;28;20020;-92
2021/01/16 00:57:18;;;;;;;17.73;12.57;;;2.70;1.00;;;;;;5113585;28;20034;-91
2021/01/16 00:59:44;;;;;;;17.65;12.80;;;2.80;1.00;;;;;;5113349;28;20028;-91
2021/01/16 01:02:09;;;;;;;17.33;11.85;;;3.10;1.00;;;;;;5113504;28;20034;-91
2021/01/16 01:04:35;;;;;;;16.10;11.80;;;3.20;1.00;;;;;;5110185;28;20108;-91
2021/01/16 01:07:01;;;;;;;17.67;12.13;;;2.80;1.00;;;;;;5113469;28;20485;-92
2021/01/16 01:09:27;;;;;;;17.42;12.98;;;2.70;1.00;;;;;;5113489;28;20111;-91
2021/01/16 01:11:53;;;;;;;16.60;12.20;;;2.70;1.00;;;;;;5105822;28;20401;-91
2021/01/16 01:14:19;;;;;;;17.55;12.35;;;2.80;1.00;;;;;;5092925;28;20020;-91
2021/01/16 01:16:45;;;;;;;14.15;11.38;;;2.80;1.00;;;;;;5092921;28;20050;-91
2021/01/16 01:19:10;;;;;;;15.80;12.23;;;3.10;1.00;;;;;;5092025;28;20450;-91
2021/01/16 01:21:36;;;;;;;15.60;12.13;;;3.10;1.00;;;;;;5092439;28;20028;-91
2021/01/16 01:24:02;;;;;;;18.42;12.88;;;2.70;1.00;;;;;;5092746;28;20078;-91
2021/01/16 01:26:27;;;;;;;16.17;12.38;;;2.70;1.00;;;;;;5092256;28;20031;-91
2021/01/16 01:28:53;;;;;;;15.65;11.27;;;3.00;1.00;;;;;;5092588;28;20027;-92
2021/01/16 01:31:18;;;;;;;15.88;12.27;;;3.10;1.00;;;;;;5092635;28;20032;-91
2021/01/16 01:33:44;;;;;;;16.95;12.20;;;3.00;1.00;;;;;;5094394;28;20497;-91
2021/01/16 01:36:10;;;;;;;16.40;11.38;;;2.90;1.00;;;;;;5097019;28;20025;-91
2021/01/16 01:38:35;;;;;;;15.27;11.40;;;2.90;1.00;;;;;;5092261;28;20035;-91
2021/01/16 01:41:01;;;;;;;17.33;11.82;;;2.70;1.00;;;;;;5092207;28;20485;-91
2021/01/16 01:43:27;;;;;;;16.70;12.02;;;2.80;1.00;;;;;;5092110;28;20052;-91
2021/01/16 01:45:53;;;;;;;17.30;12.52;;;2.80;1.00;;;;;;5092265;28;20035;-92
2021/01/16 01:48:19;;;;;;;16.13;12.00;;;2.80;1.00;;;;;;5094570;28;20046;-91
2021/01/16 01:50:45;;;;;;;16.15;11.70;;;2.70;1.00;;;;;;5112679;28;20059;-91
2021/01/16 01:53:13;;;;;;;15.60;10.68;;;3.10;1.00;;;;;;5112721;28;20027;-91
2021/01/16 01:55:43;;;;;;;17.08;12.70;;;3.20;1.00;;;;;;5112324;28;20028;-91
2021/01/16 01:58:11;;;;;;;15.10;11.68;;;2.90;1.00;;;;;;5097280;28;20032;-91
2021/01/16 02:00:37;;;;;;;16.33;12.10;;;2.80;1.00;;;;;;5093327;28;20077;-91
2021/01/16 02:03:04;;;;;;;16.63;11.88;;;2.70;1.00;;;;;;5091787;28;20024;-91
2021/01/16 02:05:29;;;;;;;16.15;11.38;;;2.60;1.00;;;;;;5110795;28;20024;-91
2021/01/16 02:07:58;;;;;;;13.88;10.77;;;2.60;1.00;;;;;;5112395;28;20035;-91
2021/01/16 02:10:24;;;;;;;16.50;12.13;;;2.60;1.00;;;;;;5111820;28;20477;-91
2021/01/16 02:12:52;;;;;;;16.33;12.38;;;2.90;1.00;;;;;;5112653;28;20026;-91
2021/01/16 02:15:25;;;;;;;14.73;11.57;;;3.10;1.00;;;;;;5112376;28;20096;-91
2021/01/16 02:17:54;;;;;;;14.57;11.15;;;2.60;1.00;;;;;;5109702;28;20075;-91
2021/01/16 02:20:34;;;;;;;15.25;11.02;;;2.40;1.00;;;;;;5091857;28;20036;-91
2021/01/16 02:23:44;;;;;;;14.80;11.18;;;2.40;1.00;;;;;;5091794;28;20119;-91
2021/01/16 02:26:16;;;;;;;15.50;11.02;;;2.50;1.00;;;;;;5083052;28;20501;-92
2021/01/16 02:28:51;;;;;;;14.88;11.77;;;2.70;1.00;;;;;;5091951;28;20174;-91
2021/01/16 02:31:17;;;;;;;14.25;10.75;;;2.40;1.00;;;;;;5092905;28;20501;-91
2021/01/16 02:33:45;;;;;;;15.50;11.13;;;2.60;1.00;;;;;;5096489;28;20031;-91
2021/01/16 02:36:34;;;;;;;14.23;10.95;;;2.80;1.00;;;;;;5112286;28;20023;-91
2021/01/16 02:39:18;;;;;;;13.48;10.80;;;2.50;1.00;;;;;;5111818;28;20063;-91
2021/01/16 02:42:22;;;;;;;14.85;11.30;;;2.50;1.00;;;;;;5112175;28;20079;-91
2021/01/16 02:44:57;;;;;;;13.38;9.98;;;2.60;1.00;;;;;;5089445;28;20059;-91
2021/01/16 02:47:32;;;;;;;13.52;10.75;;;2.40;1.00;;;;;;5112185;28;20031;-91
2021/01/16 02:50:05;;;;;;;13.95;10.43;;;2.70;1.00;;;;;;5103946;28;20034;-91
2021/01/16 02:52:35;;;;;;;14.07;10.40;;;2.60;1.00;;;;;;5111410;28;20485;-91
2021/01/16 02:55:01;;;;;;;14.23;10.70;;;2.50;1.00;;;;;;5112084;28;20016;-91
2021/01/16 02:57:27;;;;;;;14.55;10.15;;;2.30;1.00;;;;;;5111938;28;20132;-91
2021/01/16 02:59:53;;;;;;;15.25;10.70;;;2.30;1.00;;;;;;5111787;28;20118;-91
2021/01/16 03:02:18;;;;;;;14.48;10.73;;;2.30;1.00;;;;;;5111785;28;20032;-92
2021/01/16 03:04:45;;;;;;;13.00;9.82;;;2.30;1.00;;;;;;5104274;28;20027;-91
2021/01/16 03:07:17;;;;;;;12.55;10.20;;;2.70;1.00;;;;;;5112888;28;20067;-92
2021/01/16 03:09:43;;;;;;;14.40;11.20;;;2.10;1.00;;;;;;5112958;28;20111;-91
2021/01/16 03:12:10;;;;;;;14.98;10.60;;;2.60;1.00;;;;;;5111607;28;20115;-91
2021/01/16 03:14:40;;;;;;;14.50;10.98;;;2.10;1.00;;;;;;5111915;28;20020;-91
2021/01/16 03:17:11;;;;;;;13.35;10.68;;;2.20;1.00;;;;;;5113458;28;20115;-91
2021/01/16 03:19:39;;;;;;;15.20;12.35;;;2.40;1.00;;;;;;5096306;28;20024;-91
2021/01/16 03:22:23;;;;;;;13.52;10.55;;;2.80;1.00;;;;;;5094711;28;20032;-91
2021/01/16 03:24:53;;;;;;;13.48;11.18;;;2.40;1.00;;;;;;5094858;28;20111;-91
2021/01/16 03:27:20;;;;;;;14.15;10.93;;;2.40;1.00;;;;;;5095075;28;20031;-91
2021/01/16 03:29:47;;;;;;;14.40;10.63;;;3.10;1.00;;;;;;5094725;28;20527;-91
2021/01/16 03:32:13;;;;;;;14.80;10.45;;;2.70;1.00;;;;;;5094850;28;20032;-91
2021/01/16 03:34:43;;;;;;;14.63;11.32;;;3.10;1.00;;;;;;5114171;28;20163;-91
2021/01/16 03:37:09;;;;;;;14.80;10.80;;;2.90;1.00;;;;;;5115140;28;20058;-91
2021/01/16 03:39:36;;;;;;;12.57;10.25;;;3.10;1.00;;;;;;5115023;28;20035;-91
2021/01/16 03:42:02;;;;;;;13.23;9.95;;;2.70;1.00;;;;;;5115378;28;20027;-91
2021/01/16 03:44:28;;;;;;;13.90;9.80;;;2.60;1.00;;;;;;5115006;28;20028;-91
2021/01/16 03:46:54;;;;;;;14.57;10.95;;;2.50;1.00;;;;;;5112975;28;20030;-91
2021/01/16 03:49:20;;;;;;;13.80;10.90;;;2.90;1.00;;;;;;5094605;28;20028;-91
2021/01/16 03:51:45;;;;;;;12.90;10.02;;;2.70;1.00;;;;;;5094055;28;20032;-91
2021/01/16 03:54:11;;;;;;;15.40;11.80;;;2.80;1.00;;;;;;5094418;28;20016;-92
2021/01/16 03:56:37;;;;;;;14.23;10.30;;;3.10;1.00;;;;;;5108669;28;20114;-91
2021/01/16 03:59:05;;;;;;;15.20;10.93;;;2.70;1.00;;;;;;5114770;28;20015;-91
2021/01/16 04:01:35;;;;;;;15.73;11.85;;;2.50;1.00;;;;;;5113364;28;20173;-91
2021/01/16 04:04:01;;;;;;;14.20;10.55;;;3.00;1.00;;;;;;5110703;28;20034;-91
2021/01/16 04:06:27;;;;;;;15.13;10.90;;;2.50;1.00;;;;;;5114238;28;20032;-91
2021/01/16 04:08:52;;;;;;;14.27;10.90;;;2.80;1.00;;;;;;5114602;28;20437;-91
2021/01/16 04:11:18;;;;;;;14.10;10.88;;;2.60;1.00;;;;;;5114623;28;20034;-91
2021/01/16 04:13:43;;;;;;;15.75;11.30;;;2.30;1.00;;;;;;5114585;28;20374;-91
2021/01/16 04:16:09;;;;;;;15.05;11.32;;;2.40;1.00;;;;;;5114720;28;20031;-91
2021/01/16 04:18:35;;;;;;;14.40;11.13;;;2.40;1.00;;;;;;5094075;28;20370;-91
2021/01/16 04:21:02;;;;;;;17.27;11.98;;;2.70;1.00;;;;;;5093474;28;20464;-91
2021/01/16 04:23:28;;;;;;;14.75;11.32;;;2.50;1.00;;;;;;5094103;28;20051;-91
2021/01/16 04:25:54;;;;;;;14.70;11.35;;;2.90;1.00;;;;;;5093819;28;20031;-91
2021/01/16 04:28:20;;;;;;;13.82;10.60;;;2.90;1.00;;;;;;5093131;28;20039;-91
2021/01/16 04:30:45;;;;;;;14.38;11.05;;;2.40;1.00;;;;;;5093734;28;20032;-92
2021/01/16 04:33:12;;;;;;;15.38;11.25;;;2.50;1.00;;;;;;5101252;28;20438;-91
2021/01/16 04:35:38;;;;;;;14.38;11.27;;;2.40;1.00;;;;;;5113868;28;20027;-91
2021/01/16 04:38:04;;;;;;;15.05;10.80;;;2.40;1.00;;;;;;5114213;28;20060;-91
2021/01/16 04:40:30;;;;;;;15.65;11.90;;;2.40;1.00;;;;;;5114742;28;20051;-91
2021/01/16 04:42:56;;;;;;;15.82;11.57;;;2.40;1.00;;;;;;5113883;28;20039;-91
2021/01/16 04:45:23;;;;;;;15.18;11.27;;;2.40;1.00;;;;;;5113838;28;20042;-91
2021/01/16 04:47:50;;;;;;;14.45;11.27;;;2.30;1.00;;;;;;5112245;28;20123;-91
2021/01/16 04:50:19;;;;;;;15.45;11.45;;;2.40;1.00;;;;;;5113650;28;20611;-91
2021/01/16 04:52:46;;;;;;;14.65;11.02;;;2.30;1.00;;;;;;5113514;28;20016;-90
2021/01/16 04:55:14;;;;;;;13.50;10.85;;;2.30;1.00;;;;;;5113330;28;20388;-91
2021/01/16 04:57:41;;;;;;;15.05;11.40;;;2.20;1.00;;;;;;5113873;28;20511;-91
2021/01/16 05:00:09;;;;;;;15.27;11.45;;;2.30;1.00;;;;;;5113699;28;20019;-91
2021/01/16 05:02:39;;;;;;;14.43;10.77;;;2.40;1.00;;;;;;5102272;28;20161;-91
2021/01/16 05:05:07;;;;;;;15.48;11.73;;;2.50;1.00;;;;;;5093101;28;20035;-91
2021/01/16 05:07:33;;;;;;;15.05;11.15;;;2.50;1.00;;;;;;5092649;28;20024;-91
2021/01/16 05:10:01;;;;;;;15.43;11.18;;;2.40;1.00;;;;;;5092627;28;20020;-91
2021/01/16 05:13:03;;;;;;;15.02;12.13;;;2.80;1.00;;;;;;5093021;28;20489;-91
2021/01/16 05:15:30;;;;;;;14.05;11.18;;;2.50;1.00;;;;;;5093020;28;20032;-91
2021/01/16 05:18:04;;;;;;;15.50;12.10;;;2.50;1.00;;;;;;5091985;28;20066;-91
2021/01/16 05:20:32;;;;;;;14.95;10.80;;;2.60;1.00;;;;;;5092399;28;20032;-91
2021/01/16 05:23:14;;;;;;;15.18;10.70;;;2.50;1.00;;;;;;5093588;28;20024;-90
2021/01/16 05:25:41;;;;;;;13.48;10.65;;;2.40;1.00;;;;;;5093329;28;20081;-90
2021/01/16 05:28:08;;;;;;;14.35;10.32;;;2.30;1.00;;;;;;5092697;28;20027;-91
2021/01/16 05:31:04;;;;;;;14.23;10.48;;;2.80;1.00;;;;;;5092503;28;20028;-91
2021/01/16 05:33:32;;;;;;;14.27;10.38;;;2.20;1.00;;;;;;5092306;28;20024;-90
2021/01/16 05:36:00;;;;;;;14.88;11.20;;;2.30;1.00;;;;;;5097303;28;20020;-91
2021/01/16 05:38:31;;;;;;;15.40;10.85;;;2.50;1.00;;;;;;5110611;28;20024;-91
2021/01/16 05:40:58;;;;;;;14.05;10.80;;;2.90;1.00;;;;;;5094513;28;20079;-91
2021/01/16 05:43:25;;;;;;;13.82;10.60;;;2.70;1.00;;;;;;5092554;28;20113;-91
2021/01/16 05:45:57;;;;;;;15.70;11.05;;;2.40;1.00;;;;;;5092228;28;20053;-90
2021/01/16 05:48:25;;;;;;;13.60;9.98;;;3.00;1.00;;;;;;5093332;28;20032;-91
2021/01/16 05:50:51;;;;;;;15.43;10.98;;;2.60;1.00;;;;;;5091891;28;20032;-91
2021/01/16 05:53:17;;;;;;;15.60;10.77;;;2.40;1.00;;;;;;5092619;28;20492;-91
2021/01/16 05:55:43;;;;;;;15.20;11.00;;;2.80;1.00;;;;;;5099046;28;20059;-91
2021/01/16 05:58:08;;;;;;;16.70;11.00;;;2.40;1.00;;;;;;5112766;28;20096;-91
2021/01/16 06:00:39;;;;;;;13.60;10.32;;;2.30;1.00;;;;;;5113527;28;20038;-91
2021/01/16 06:03:11;;;;;;;15.48;10.82;;;2.40;1.00;;;;;;5112440;28;20030;-91
2021/01/16 06:05:37;;;;;;;12.98;9.75;;;2.50;1.00;;;;;;5108774;28;20040;-91
2021/01/16 06:08:03;;;;;;;14.68;10.65;;;2.40;1.00;;;;;;5094005;28;20035;-91
2021/01/16 06:10:34;;;;;;;14.75;10.25;;;2.40;1.00;;;;;;5091623;28;20063;-91
2021/01/16 06:13:18;;;;;;;15.45;10.43;;;2.30;1.00;;;;;;5092147;28;20025;-92
2021/01/16 06:15:48;;;;;;;15.55;10.60;;;2.20;1.00;;;;;;5091959;28;20031;-91
2021/01/16 06:18:19;;;;;;;12.43;9.20;;;2.30;1.00;;;;;;5092282;28;20213;-91
2021/01/16 06:20:48;;;;;;;14.68;10.20;;;2.30;1.00;;;;;;5092631;28;20077;-91
2021/01/16 06:23:18;;;;;;;13.85;10.57;;;2.30;1.00;;;;;;5091899;28;20085;-91
2021/01/16 06:25:48;;;;;;;13.55;10.45;;;2.40;1.00;;;;;;5091934;28;20482;-91
2021/01/16 06:28:16;;;;;;;13.55;9.98;;;2.20;1.00;;;;;;5092062;28;20051;-91
2021/01/16 06:30:44;;;;;;;14.18;10.85;;;2.40;1.00;;;;;;5091516;28;20039;-91
2021/01/16 06:33:30;;;;;;;13.70;10.25;;;2.40;1.00;;;;;;5092042;28;20088;-91
2021/01/16 06:36:05;;;;;;;14.75;10.68;;;2.20;1.00;;;;;;5095163;28;20640;-91
2021/01/16 06:38:35;;;;;;;13.18;10.23;;;2.20;1.00;;;;;;5091222;28;20117;-92
2021/01/16 06:41:15;;;;;;;12.23;9.10;;;2.60;1.00;;;;;;5092007;28;20463;-91
2021/01/16 06:43:45;;;;;;;14.20;9.98;;;2.10;1.00;;;;;;5091726;28;20028;-91
2021/01/16 06:46:15;;;;;;;14.43;10.93;;;2.10;1.00;;;;;;5091270;28;20028;-92
2021/01/16 06:48:46;;;;;;;14.50;10.77;;;2.00;1.00;;;;;;5092116;28;20035;-91
2021/01/16 06:51:32;;;;;;;14.20;10.18;;;2.10;1.00;;;;;;5091582;28;20016;-91
2021/01/16 06:54:06;;;;;;;13.32;9.82;;;2.50;1.00;;;;;;5109281;28;20065;-91
2021/01/16 06:56:33;;;;;;;13.63;9.82;;;2.10;1.00;;;;;;5115929;28;20047;-91
2021/01/16 06:59:00;;;;;;;12.68;9.90;;;2.20;1.00;;;;;;5115567;28;20412;-91
2021/01/16 07:01:30;;;;;;;14.07;9.77;;;2.20;1.00;;;;;;5116170;28;20114;-91
2021/01/16 07:03:59;;;;;;;11.95;9.07;;;2.10;1.00;;;;;;5115879;28;20039;-91
2021/01/16 07:06:25;;;;;;;13.73;9.65;;;1.90;1.00;;;;;;5106758;28;20031;-90
2021/01/16 07:08:52;;;;;;;13.50;10.05;;;2.00;1.00;;;;;;5095446;28;20032;-91
2021/01/16 07:11:17;;;;;;;12.27;9.35;;;2.20;1.00;;;;;;5095215;28;20051;-90
2021/01/16 07:13:43;;;;;;;12.73;9.90;;;1.90;1.00;;;;;;5097577;28;20052;-91
2021/01/16 07:16:10;;;;;;;13.10;9.90;;;2.00;1.00;;;;;;5095872;28;20107;-90
2021/01/16 07:18:37;;;;;;;12.40;9.52;;;1.90;1.00;;;;;;5094849;28;20504;-89
2021/01/16 07:21:03;;;;;;;14.70;10.05;;;2.30;1.00;;;;;;5094618;28;20028;-89
2021/01/16 07:23:30;;;;;;;13.20;10.00;;;2.20;1.00;;;;;;5094900;28;20074;-90
2021/01/16 07:25:56;;;;;;;14.07;9.85;;;2.60;1.00;;;;;;5094861;28;20122;-89
2021/01/16 07:28:24;;;;;;;15.45;10.20;;;2.20;1.00;;;;;;5094216;28;20119;-89
2021/01/16 07:30:50;;;;;;;16.05;9.82;;;2.20;1.00;;;;;;5094400;28;20097;-89
2021/01/16 07:33:16;;;;;;;14.25;10.88;;;2.30;1.00;;;;;;5094505;28;20112;-89
2021/01/16 07:36:04;;;;;;;14.40;9.85;;;2.70;1.00;;;;;;5097484;28;20020;-89
2021/01/16 07:38:31;;;;;;;15.02;10.20;;;2.40;1.00;;;;;;5094501;28;20107;-89
2021/01/16 07:40:57;;;;;;;14.38;10.48;;;2.50;1.00;;;;;;5094058;28;20048;-89
2021/01/16 07:43:38;;;;;;;14.95;10.25;;;2.20;1.00;;;;;;5094197;28;20182;-89
2021/01/16 07:46:09;;;;;;;14.38;9.88;;;2.20;1.00;;;;;;5094254;28;20023;-89
2021/01/16 07:48:47;;;;;;;12.40;9.55;;;2.70;1.00;;;;;;5094499;28;20481;-89
2021/01/16 07:51:16;;;;;;;14.00;10.00;;;2.30;1.00;;;;;;5093893;28;20055;-90
2021/01/16 07:53:43;;;;;;;12.18;9.75;;;2.20;1.00;;;;;;5094198;28;20114;-89
2021/01/16 07:56:35;;;;;;;13.40;10.20;;;2.30;1.00;;;;;;5104717;28;20034;-90
2021/01/16 07:59:07;;;;;;;14.32;10.52;;;2.60;1.00;;;;;;5111636;28;20110;-89
2021/01/16 08:01:58;;;;;;;12.10;9.23;;;2.30;1.00;;;;;;5115573;28;20035;-89
2021/01/16 08:04:36;;;;;;;14.02;10.52;;;2.30;1.00;;;;;;5114398;28;20080;-89
2021/01/16 08:07:08;;;;;;;13.15;9.30;;;2.90;1.00;;;;;;5114418;28;20031;-89
2021/01/16 08:09:50;;;;;;;12.75;9.65;;;2.50;1.00;;;;;;5099470;28;20035;-89
2021/01/16 08:12:18;;;;;;;31.95;18.60;;;2.40;1.00;;;;;;5094630;28;20104;-88
2021/01/16 08:14:43;;;;;;;13.70;10.18;;;2.80;1.00;;;;;;5095036;28;20548;-89
2021/01/16 08:17:37;;;;;;;17.70;13.10;;;2.50;1.00;;;;;;5093622;28;20111;-88
2021/01/16 08:20:18;;;;;;;14.38;10.80;;;2.40;1.00;;;;;;5089707;28;20070;-89
2021/01/16 08:22:51;;;;;;;14.40;10.45;;;2.40;1.00;;;;;;5093184;28;20030;-89
2021/01/16 08:25:24;;;;;;;15.80;10.02;;;2.40;1.00;;;;;;5113407;28;20114;-89
2021/01/16 08:27:53;;;;;;;17.83;12.55;;;2.60;1.00;;;;;;5114007;28;20110;-90
2021/01/16 08:30:21;;;;;;;20.73;14.15;;;2.60;1.00;;;;;;5113726;28;20019;-90
2021/01/16 08:32:57;;;;;;;15.98;10.93;;;2.40;1.00;;;;;;5113477;28;20020;-90
2021/01/16 08:35:41;;;;;;;16.40;12.65;;;2.30;1.00;;;;;;5113823;28;20127;-90
2021/01/16 08:41:02;;;;;;;14.25;10.75;;;2.40;1.00;;;;;;5114711;28;20044;-90
2021/01/16 08:43:43;;;;;;;13.65;10.40;;;2.40;1.00;;;;;;5113687;27;20114;-90
2021/01/16 08:46:14;;;;;;;10.98;9.10;;;2.50;1.00;;;;;;5113842;28;20089;-90
2021/01/16 08:48:42;;;;;;;14.32;10.90;;;2.90;1.00;;;;;;5113796;28;20519;-90
2021/01/16 08:51:28;;;;;;;13.35;9.35;;;2.60;1.00;;;;;;5113626;28;20576;-90
2021/01/16 08:54:17;;;;;;;18.70;13.05;;;2.70;1.00;;;;;;5100539;28;20028;-90
2021/01/16 08:56:48;;;;;;;31.05;18.33;;;2.50;1.00;;;;;;5108267;28;20028;-90
2021/01/16 08:59:18;;;;;;;15.82;12.23;;;2.70;1.00;;;;;;5113621;28;20506;-89
2021/01/16 09:01:49;;;;;;;13.05;9.60;;;2.90;1.00;;;;;;5113286;28;20019;-90
2021/01/16 09:04:29;;;;;;;14.05;10.75;;;2.70;1.00;;;;;;5113185;28;20051;-89
2021/01/16 09:07:15;;;;;;;14.32;10.30;;;2.70;1.00;;;;;;5110958;28;20030;-90
2021/01/16 09:10:00;;;;;;;12.52;9.65;;;2.80;1.00;;;;;;5092616;28;20028;-90
2021/01/16 09:12:30;;;;;;;13.88;9.75;;;3.00;1.00;;;;;;5089802;28;20032;-90
2021/01/16 09:15:21;;;;;;;13.07;9.55;;;3.30;1.00;;;;;;5092570;28;20032;-90
2021/01/16 09:18:06;;;;;;;11.75;9.32;;;3.00;1.00;;;;;;5103477;28;20569;-90
2021/01/16 09:20:35;;;;;;;13.25;10.02;;;3.20;1.00;;;;;;5113169;28;20034;-90
2021/01/16 09:23:19;;;;;;;12.65;10.27;;;3.10;1.00;;;;;;5104110;28;20043;-90
2021/01/16 09:25:49;;;;;;;13.30;9.75;;;3.10;1.00;;;;;;5092302;28;20055;-90
2021/01/16 09:28:14;;;;;;;14.07;10.60;;;3.30;1.00;;;;;;5092802;28;20393;-90
2021/01/16 09:30:40;;;;;;;12.82;10.07;;;3.30;1.00;;;;;;5092364;28;20035;-90
2021/01/16 09:33:22;;;;;;;13.25;10.48;;;3.20;1.00;;;;;;5092375;28;20024;-90
2021/01/16 09:35:48;;;;;;;12.95;10.02;;;3.60;1.00;;;;;;5092823;28;20028;-90
2021/01/16 09:38:21;;;;;;;12.20;8.82;;;3.50;1.00;;;;;;5098306;28;20122;-90
2021/01/16 09:40:49;;;;;;;13.05;9.35;;;3.50;1.00;;;;;;5113949;28;20103;-90
2021/01/16 09:43:17;;;;;;;10.35;8.45;;;3.50;1.00;;;;;;5112785;28;20397;-90
2021/01/16 09:46:00;;;;;;;11.40;9.57;;;3.60;1.00;;;;;;5111482;28;20114;-90
2021/01/16 09:48:43;;;;;;;12.05;9.73;;;3.80;1.00;;;;;;5113055;28;20020;-90
2021/01/16 09:51:10;;;;;;;13.60;9.70;;;3.70;1.00;;;;;;5113790;28;20039;-90
2021/01/16 09:53:37;;;;;;;11.20;8.68;;;3.80;1.00;;;;;;5111412;28;20027;-90
2021/01/16 09:56:03;;;;;;;12.73;8.95;;;4.00;1.00;;;;;;5112529;28;20036;-90
2021/01/16 09:58:36;;;;;;;12.95;9.30;;;3.60;1.00;;;;;;5112430;28;20481;-90
2021/01/16 10:01:24;;;;;;;10.50;8.68;;;4.10;1.00;;;;;;5112512;28;20039;-90
2021/01/16 10:03:51;;;;;;;14.25;10.65;;;4.30;1.00;;;;;;5114271;28;20556;-90
2021/01/16 10:06:19;;;;;;;11.35;9.35;;;3.90;1.00;;;;;;5112544;28;20172;-90
2021/01/16 10:08:48;;;;;;;13.52;9.48;;;4.00;1.00;;;;;;5095733;28;20028;-90
2021/01/16 10:11:35;;;;;;;12.77;9.27;;;3.70;1.00;;;;;;5093056;28;20031;-90
2021/01/16 10:14:19;;;;;;;10.80;8.90;;;3.90;1.00;;;;;;5092212;28;20024;-90
2021/01/16 10:16:48;;;;;;;11.63;8.90;;;3.90;1.00;;;;;;5092116;28;20028;-90
2021/01/16 10:19:16;;;;;;;10.77;8.73;;;4.50;1.00;;;;;;5092029;28;20074;-90
2021/01/16 10:21:55;;;;;;;11.50;8.80;;;4.60;1.00;;;;;;5091211;28;20032;-90
2021/01/16 10:24:22;;;;;;;10.48;8.70;;;4.80;1.00;;;;;;5108976;28;20020;-90
2021/01/16 10:26:48;;;;;;;10.48;8.57;;;4.80;1.00;;;;;;5093099;28;20397;-90
2021/01/16 10:29:19;;;;;;;10.70;8.32;;;4.60;1.00;;;;;;5095934;28;20031;-90
2021/01/16 10:31:45;;;;;;;10.07;7.75;;;4.70;1.00;;;;;;5095914;28;20034;-90
2021/01/16 10:34:11;;;;;;;9.95;8.15;;;4.80;1.00;;;;;;5096135;28;20012;-90
2021/01/16 10:36:37;;;;;;;12.57;8.70;;;5.00;1.00;;;;;;5094604;28;20713;-91
2021/01/16 10:39:14;;;;;;;10.18;7.63;;;5.10;1.00;;;;;;5095809;28;20044;-90
2021/01/16 10:41:45;;;;;;;10.40;8.35;;;4.50;1.00;;;;;;5095425;28;20039;-90
2021/01/16 10:44:12;;;;;;;10.63;8.27;;;4.60;1.00;;;;;;5095789;28;20039;-90
2021/01/16 10:46:46;;;;;;;10.50;8.15;;;4.70;1.00;;;;;;5095324;28;20032;-90
2021/01/16 10:49:23;;;;;;;10.32;7.93;;;4.30;1.00;;;;;;5096834;28;20105;-90
2021/01/16 10:51:51;;;;;;;10.02;7.90;;;4.40;1.00;;;;;;5095959;28;20438;-90
2021/01/16 10:54:18;;;;;;;10.70;8.23;;;4.50;1.00;;;;;;5115933;28;20019;-90
2021/01/16 10:56:57;;;;;;;12.55;8.73;;;4.60;1.00;;;;;;5115819;28;20027;-90
2021/01/16 10:59:25;;;;;;;17.55;12.75;;;4.40;1.00;;;;;;5112941;28;20034;-89
2021/01/16 11:01:52;;;;;;;9.98;8.43;;;4.40;1.00;;;;;;5095557;28;20504;-90
2021/01/16 11:04:23;;;;;;;15.00;10.60;;;4.50;1.00;;;;;;5095281;28;20040;-90
2021/01/16 11:07:02;;;;;;;13.15;9.32;;;4.30;1.00;;;;;;5094942;28;20096;-90
2021/01/16 11:09:33;;;;;;;14.18;10.10;;;4.10;1.00;;;;;;5096547;28;20508;-90
2021/01/16 11:12:04;;;;;;;11.00;8.88;;;4.30;1.00;;;;;;5095324;28;20074;-90
2021/01/16 11:14:40;;;;;;;18.88;12.57;;;4.20;1.00;;;;;;5094581;28;20509;-90
2021/01/16 11:17:07;;;;;;;17.92;12.48;;;4.50;1.00;;;;;;5095411;28;20128;-90
2021/01/16 11:19:39;;;;;;;18.20;13.20;;;4.60;1.00;;;;;;5094845;28;20020;-90
2021/01/16 11:22:09;;;;;;;10.32;8.00;;;4.70;1.00;;;;;;5101697;28;20039;-91
2021/01/16 11:24:53;;;;;;;9.75;8.00;;;5.10;1.00;;;;;;5097283;28;20028;-90
2021/01/16 11:27:20;;;;;;;10.65;9.23;;;5.10;1.00;;;;;;5094972;28;20024;-90
2021/01/16 11:29:47;;;;;;;10.80;8.35;;;6.00;1.00;;;;;;5094671;28;20020;-91
2021/01/16 11:32:26;;;;;;;9.98;8.00;;;7.20;1.00;;;;;;5095623;28;20032;-91
2021/01/16 11:35:37;;;;;;;11.70;7.95;;;6.70;1.00;;;;;;5094714;28;20024;-90
2021/01/16 11:38:02;;;;;;;8.27;6.78;;;6.30;1.00;;;;;;5077825;28;20036;-91
2021/01/16 11:40:33;;;;;;;9.40;7.40;;;6.10;1.00;;;;;;5076808;28;20048;-90
2021/01/16 11:43:13;;;;;;;8.57;6.22;;;5.60;1.00;;;;;;5076908;28;20031;-90
2021/01/16 11:45:38;;;;;;;7.80;6.78;;;5.30;1.00;;;;;;5076882;28;20107;-90
2021/01/16 11:48:06;;;;;;;8.40;7.10;;;5.40;1.00;;;;;;5076648;28;20062;-90
2021/01/16 11:50:36;;;;;;;8.05;6.32;;;5.20;1.00;;;;;;5076202;28;20052;-91
2021/01/16 11:53:08;;;;;;;9.13;6.88;;;5.10;1.00;;;;;;5086471;28;20100;-90
2021/01/16 11:55:34;;;;;;;8.32;7.05;;;5.00;1.00;;;;;;5079483;28;20512;-90
2021/01/16 11:58:02;;;;;;;7.75;6.43;;;5.20;1.00;;;;;;5076839;28;20048;-90
2021/01/16 12:00:28;;;;;;;7.80;6.43;;;5.10;1.00;;;;;;5093400;28;20055;-90
2021/01/16 12:02:55;;;;;;;8.15;6.25;;;5.20;1.00;;;;;;5076195;28;20079;-90
2021/01/16 12:05:22;;;;;;;8.68;6.32;;;4.90;1.00;;;;;;5076610;28;20028;-90
2021/01/16 12:07:49;;;;;;;7.22;6.20;;;4.90;1.00;;;;;;5091620;28;20031;-90
2021/01/16 12:10:19;;;;;;;7.53;6.05;;;4.90;1.00;;;;;;5096758;28;20027;-91
2021/01/16 12:12:45;;;;;;;9.60;7.00;;;4.80;1.00;;;;;;5093551;28;20038;-90
2021/01/16 12:15:25;;;;;;;7.72;6.03;;;4.90;1.00;;;;;;5094154;28;20397;-90
2021/01/16 12:17:52;;;;;;;12.18;9.60;;;5.10;1.00;;;;;;5093752;28;20023;-90
2021/01/16 12:20:19;;;;;;;13.60;9.60;;;4.90;1.00;;;;;;5093876;28;20073;-90
2021/01/16 12:22:49;;;;;;;7.22;6.13;;;5.00;1.00;;;;;;5108992;28;20020;-90
2021/01/16 12:25:16;;;;;;;9.57;7.13;;;4.90;1.00;;;;;;5114403;28;20062;-90
2021/01/16 12:27:50;;;;;;;8.38;7.03;;;4.50;1.00;;;;;;5113996;28;20104;-90
2021/01/16 12:30:18;;;;;;;8.57;6.53;;;4.50;1.00;;;;;;5114234;28;20024;-90
2021/01/16 12:32:44;;;;;;;8.15;6.68;;;4.60;1.00;;;;;;5113910;28;20074;-90
2021/01/16 12:35:11;;;;;;;7.55;6.43;;;4.40;1.00;;;;;;5113954;28;20507;-91
2021/01/16 12:37:38;;;;;;;8.60;6.60;;;4.40;1.00;;;;;;5099624;28;20132;-90
2021/01/16 12:40:16;;;;;;;7.68;6.82;;;4.80;1.00;;;;;;5093551;28;20127;-90
2021/01/16 12:42:42;;;;;;;7.93;7.03;;;4.60;1.00;;;;;;5093286;28;20028;-91
2021/01/16 12:45:12;;;;;;;8.57;7.03;;;4.60;1.00;;;;;;5093500;28;20119;-90
2021/01/16 12:47:39;;;;;;;8.23;6.20;;;4.50;1.00;;;;;;5093179;28;20031;-90
2021/01/16 12:50:06;;;;;;;6.75;5.75;;;4.70;1.00;;;;;;5092655;28;20186;-90
2021/01/16 12:52:32;;;;;;;8.85;6.15;;;4.70;1.00;;;;;;5096890;28;20512;-90
2021/01/16 12:55:00;;;;;;;7.10;5.93;;;4.40;1.00;;;;;;5093981;28;20027;-90
2021/01/16 12:57:32;;;;;;;7.30;6.07;;;4.30;1.00;;;;;;5113587;28;20020;-90
2021/01/16 12:59:59;;;;;;;8.07;6.53;;;4.20;1.00;;;;;;5113495;28;20028;-90
2021/01/16 13:02:26;;;;;;;7.55;5.90;;;4.40;1.00;;;;;;5112871;28;20164;-90
2021/01/16 13:04:56;;;;;;;7.25;6.25;;;4.60;1.00;;;;;;5113375;28;20164;-90
2021/01/16 13:07:23;;;;;;;8.05;5.60;;;4.40;1.00;;;;;;5110853;28;20096;-90
2021/01/16 13:09:50;;;;;;;7.65;6.18;;;4.40;1.00;;;;;;5113361;28;20019;-90
2021/01/16 13:12:18;;;;;;;7.47;6.10;;;4.30;1.00;;;;;;5113106;28;20028;-90